Terminal Aerodrome Forecast
Issued by NWS Cleveland, OH

Home | Current Version | Previous Version | Graphics & Text | Print | Product List | Glossary On
Versions: 1 2 3 4 5 6 7 8 9 10 11 12 13 14 15 16 17 18 19 20 21 22
414
FTUS41 KCLE 280212 AAA
TAFMFD
TAF AMD
KMFD 280212Z 2802/2824 VRB03KT 5SM BR BKN040
      TEMPO 2802/2805 2SM BR BKN005
     FM280500 03005KT 3SM BR BKN070
     FM281400 03008KT P6SM BKN025
     FM282000 02012G20KT P6SM BKN035=

USA.gov is the U.S. government's official web portal to all federal, state and local government web resources and services.